sensor_id;sensor_type;location;lat;lon;timestamp;P1;durP1;ratioP1;P2;durP2;ratioP2
76127;SDS011;64873;50.102;14.434;2023-09-30T00:01:42;7.78;;;4.50;;
76127;SDS011;64873;50.102;14.434;2023-09-30T00:04:09;10.88;;;4.50;;
76127;SDS011;64873;50.102;14.434;2023-09-30T00:06:34;6.88;;;4.18;;
76127;SDS011;64873;50.102;14.434;2023-09-30T00:09:00;10.32;;;5.00;;
76127;SDS011;64873;50.102;14.434;2023-09-30T00:11:26;11.70;;;5.40;;
76127;SDS011;64873;50.102;14.434;2023-09-30T00:13:51;14.52;;;5.65;;
76127;SDS011;64873;50.102;14.434;2023-09-30T00:16:17;11.52;;;5.78;;
76127;SDS011;64873;50.102;14.434;2023-09-30T00:18:43;11.10;;;5.95;;
76127;SDS011;64873;50.102;14.434;2023-09-30T00:21:09;9.70;;;5.05;;
76127;SDS011;64873;50.102;14.434;2023-09-30T00:23:35;14.18;;;6.72;;
76127;SDS011;64873;50.102;14.434;2023-09-30T00:26:01;19.63;;;7.07;;
76127;SDS011;64873;50.102;14.434;2023-09-30T00:28:26;14.95;;;6.65;;
76127;SDS011;64873;50.102;14.434;2023-09-30T00:30:51;17.00;;;7.20;;
76127;SDS011;64873;50.102;14.434;2023-09-30T00:33:17;17.50;;;7.30;;
76127;SDS011;64873;50.102;14.434;2023-09-30T00:35:43;18.48;;;7.95;;
76127;SDS011;64873;50.102;14.434;2023-09-30T00:38:08;22.23;;;9.38;;
76127;SDS011;64873;50.102;14.434;2023-09-30T00:40:35;19.15;;;8.52;;
76127;SDS011;64873;50.102;14.434;2023-09-30T00:43:00;22.17;;;10.00;;
76127;SDS011;64873;50.102;14.434;2023-09-30T00:45:26;22.73;;;10.35;;
76127;SDS011;64873;50.102;14.434;2023-09-30T00:47:52;25.65;;;10.18;;
76127;SDS011;64873;50.102;14.434;2023-09-30T00:50:19;31.10;;;11.57;;
76127;SDS011;64873;50.102;14.434;2023-09-30T00:52:46;27.20;;;10.85;;
76127;SDS011;64873;50.102;14.434;2023-09-30T00:55:13;25.65;;;11.48;;
76127;SDS011;64873;50.102;14.434;2023-09-30T00:57:40;28.38;;;12.07;;
76127;SDS011;64873;50.102;14.434;2023-09-30T01:00:06;29.65;;;12.75;;
76127;SDS011;64873;50.102;14.434;2023-09-30T01:02:36;29.27;;;11.57;;
76127;SDS011;64873;50.102;14.434;2023-09-30T01:05:03;30.02;;;12.60;;
76127;SDS011;64873;50.102;14.434;2023-09-30T01:07:30;27.73;;;11.85;;
76127;SDS011;64873;50.102;14.434;2023-09-30T01:09:55;30.63;;;12.00;;
76127;SDS011;64873;50.102;14.434;2023-09-30T01:12:21;25.40;;;12.52;;
76127;SDS011;64873;50.102;14.434;2023-09-30T01:14:46;28.98;;;11.98;;
76127;SDS011;64873;50.102;14.434;2023-09-30T01:17:11;33.50;;;13.38;;
76127;SDS011;64873;50.102;14.434;2023-09-30T01:19:38;27.83;;;12.40;;
76127;SDS011;64873;50.102;14.434;2023-09-30T01:22:05;32.60;;;12.73;;
76127;SDS011;64873;50.102;14.434;2023-09-30T01:24:30;28.33;;;12.20;;
76127;SDS011;64873;50.102;14.434;2023-09-30T01:26:56;29.80;;;12.82;;
76127;SDS011;64873;50.102;14.434;2023-09-30T01:29:22;33.60;;;12.93;;
76127;SDS011;64873;50.102;14.434;2023-09-30T01:31:48;32.80;;;13.98;;
76127;SDS011;64873;50.102;14.434;2023-09-30T01:34:15;32.42;;;13.27;;
76127;SDS011;64873;50.102;14.434;2023-09-30T01:36:41;33.15;;;12.98;;
76127;SDS011;64873;50.102;14.434;2023-09-30T01:39:08;32.47;;;13.50;;
76127;SDS011;64873;50.102;14.434;2023-09-30T01:41:37;31.65;;;12.45;;
76127;SDS011;64873;50.102;14.434;2023-09-30T01:44:03;31.73;;;13.45;;
76127;SDS011;64873;50.102;14.434;2023-09-30T01:46:28;30.35;;;13.05;;
76127;SDS011;64873;50.102;14.434;2023-09-30T01:48:54;33.55;;;13.10;;
76127;SDS011;64873;50.102;14.434;2023-09-30T01:51:19;31.95;;;13.05;;
76127;SDS011;64873;50.102;14.434;2023-09-30T01:53:45;29.75;;;12.27;;
76127;SDS011;64873;50.102;14.434;2023-09-30T01:56:10;31.15;;;12.23;;
76127;SDS011;64873;50.102;14.434;2023-09-30T01:58:35;33.35;;;13.35;;
76127;SDS011;64873;50.102;14.434;2023-09-30T02:01:02;30.05;;;13.15;;
76127;SDS011;64873;50.102;14.434;2023-09-30T02:03:28;33.42;;;12.95;;
76127;SDS011;64873;50.102;14.434;2023-09-30T02:05:54;31.20;;;12.48;;
76127;SDS011;64873;50.102;14.434;2023-09-30T02:08:21;35.15;;;13.13;;
76127;SDS011;64873;50.102;14.434;2023-09-30T02:10:47;32.47;;;12.27;;
76127;SDS011;64873;50.102;14.434;2023-09-30T02:13:13;32.33;;;12.07;;
76127;SDS011;64873;50.102;14.434;2023-09-30T02:15:42;33.83;;;13.00;;
76127;SDS011;64873;50.102;14.434;2023-09-30T02:18:07;32.90;;;12.70;;
76127;SDS011;64873;50.102;14.434;2023-09-30T02:20:34;35.47;;;13.32;;
76127;SDS011;64873;50.102;14.434;2023-09-30T02:23:00;30.70;;;12.00;;
76127;SDS011;64873;50.102;14.434;2023-09-30T02:25:27;30.48;;;12.55;;
76127;SDS011;64873;50.102;14.434;2023-09-30T02:27:53;31.05;;;12.52;;
76127;SDS011;64873;50.102;14.434;2023-09-30T02:30:19;35.53;;;13.15;;
76127;SDS011;64873;50.102;14.434;2023-09-30T02:32:46;31.10;;;11.95;;
76127;SDS011;64873;50.102;14.434;2023-09-30T02:35:11;33.05;;;12.98;;
76127;SDS011;64873;50.102;14.434;2023-09-30T02:37:37;29.73;;;12.05;;
76127;SDS011;64873;50.102;14.434;2023-09-30T02:40:03;32.15;;;12.50;;
76127;SDS011;64873;50.102;14.434;2023-09-30T02:42:30;32.90;;;12.27;;
76127;SDS011;64873;50.102;14.434;2023-09-30T02:44:56;29.95;;;11.98;;
76127;SDS011;64873;50.102;14.434;2023-09-30T02:47:24;32.03;;;13.57;;
76127;SDS011;64873;50.102;14.434;2023-09-30T02:49:49;36.13;;;13.38;;
76127;SDS011;64873;50.102;14.434;2023-09-30T02:52:14;34.60;;;11.93;;
76127;SDS011;64873;50.102;14.434;2023-09-30T02:54:40;34.75;;;13.32;;
76127;SDS011;64873;50.102;14.434;2023-09-30T02:57:05;32.72;;;12.00;;
76127;SDS011;64873;50.102;14.434;2023-09-30T02:59:34;30.30;;;12.05;;
76127;SDS011;64873;50.102;14.434;2023-09-30T03:02:01;32.25;;;12.35;;
76127;SDS011;64873;50.102;14.434;2023-09-30T03:04:26;33.40;;;12.32;;
76127;SDS011;64873;50.102;14.434;2023-09-30T03:06:53;29.50;;;11.60;;
76127;SDS011;64873;50.102;14.434;2023-09-30T03:09:21;26.88;;;11.45;;
76127;SDS011;64873;50.102;14.434;2023-09-30T03:11:47;29.00;;;12.13;;
76127;SDS011;64873;50.102;14.434;2023-09-30T03:14:13;36.25;;;12.88;;
76127;SDS011;64873;50.102;14.434;2023-09-30T03:16:39;32.40;;;11.55;;
76127;SDS011;64873;50.102;14.434;2023-09-30T03:19:06;30.95;;;12.10;;
76127;SDS011;64873;50.102;14.434;2023-09-30T03:21:34;32.83;;;11.75;;
76127;SDS011;64873;50.102;14.434;2023-09-30T03:24:01;29.33;;;12.25;;
76127;SDS011;64873;50.102;14.434;2023-09-30T03:26:30;29.65;;;11.35;;
76127;SDS011;64873;50.102;14.434;2023-09-30T03:28:56;30.75;;;11.63;;
76127;SDS011;64873;50.102;14.434;2023-09-30T03:31:23;32.17;;;12.95;;
76127;SDS011;64873;50.102;14.434;2023-09-30T03:33:49;30.00;;;11.07;;
76127;SDS011;64873;50.102;14.434;2023-09-30T03:36:16;29.25;;;11.38;;
76127;SDS011;64873;50.102;14.434;2023-09-30T03:38:43;33.65;;;13.65;;
76127;SDS011;64873;50.102;14.434;2023-09-30T03:41:09;28.05;;;11.75;;
76127;SDS011;64873;50.102;14.434;2023-09-30T03:43:38;29.00;;;11.57;;
76127;SDS011;64873;50.102;14.434;2023-09-30T03:46:06;27.92;;;12.38;;
76127;SDS011;64873;50.102;14.434;2023-09-30T03:48:34;31.00;;;11.50;;
76127;SDS011;64873;50.102;14.434;2023-09-30T03:51:22;34.25;;;12.10;;
76127;SDS011;64873;50.102;14.434;2023-09-30T03:53:50;32.78;;;11.55;;
76127;SDS011;64873;50.102;14.434;2023-09-30T03:56:16;27.17;;;10.20;;
76127;SDS011;64873;50.102;14.434;2023-09-30T03:58:43;28.35;;;11.00;;
76127;SDS011;64873;50.102;14.434;2023-09-30T04:01:10;34.08;;;12.93;;
76127;SDS011;64873;50.102;14.434;2023-09-30T04:03:39;31.08;;;11.27;;
76127;SDS011;64873;50.102;14.434;2023-09-30T04:06:05;24.90;;;10.23;;
76127;SDS011;64873;50.102;14.434;2023-09-30T04:08:34;27.27;;;11.20;;
76127;SDS011;64873;50.102;14.434;2023-09-30T04:11:00;28.80;;;10.82;;
76127;SDS011;64873;50.102;14.434;2023-09-30T04:13:26;26.42;;;10.85;;
76127;SDS011;64873;50.102;14.434;2023-09-30T04:15:54;28.38;;;10.95;;
76127;SDS011;64873;50.102;14.434;2023-09-30T04:18:20;30.08;;;11.63;;
76127;SDS011;64873;50.102;14.434;2023-09-30T04:20:47;30.52;;;11.30;;
76127;SDS011;64873;50.102;14.434;2023-09-30T04:23:13;29.40;;;10.88;;
76127;SDS011;64873;50.102;14.434;2023-09-30T04:25:38;29.83;;;11.23;;
76127;SDS011;64873;50.102;14.434;2023-09-30T04:28:05;25.70;;;10.43;;
76127;SDS011;64873;50.102;14.434;2023-09-30T04:30:32;29.38;;;10.98;;
76127;SDS011;64873;50.102;14.434;2023-09-30T04:32:58;23.65;;;9.68;;
76127;SDS011;64873;50.102;14.434;2023-09-30T04:35:24;29.25;;;10.32;;
76127;SDS011;64873;50.102;14.434;2023-09-30T04:37:51;22.75;;;8.30;;
76127;SDS011;64873;50.102;14.434;2023-09-30T04:40:17;24.27;;;8.65;;
76127;SDS011;64873;50.102;14.434;2023-09-30T04:42:46;17.65;;;7.43;;
76127;SDS011;64873;50.102;14.434;2023-09-30T04:45:12;21.25;;;8.57;;
76127;SDS011;64873;50.102;14.434;2023-09-30T04:47:41;14.90;;;5.68;;
76127;SDS011;64873;50.102;14.434;2023-09-30T04:50:09;13.90;;;5.90;;
76127;SDS011;64873;50.102;14.434;2023-09-30T04:52:36;11.85;;;5.07;;
76127;SDS011;64873;50.102;14.434;2023-09-30T04:55:03;11.85;;;4.78;;
76127;SDS011;64873;50.102;14.434;2023-09-30T04:57:29;11.88;;;4.75;;
76127;SDS011;64873;50.102;14.434;2023-09-30T04:59:56;11.93;;;3.95;;
76127;SDS011;64873;50.102;14.434;2023-09-30T05:02:22;12.05;;;4.78;;
76127;SDS011;64873;50.102;14.434;2023-09-30T05:04:49;4.40;;;1.75;;
76127;SDS011;64873;50.102;14.434;2023-09-30T05:07:14;6.57;;;2.50;;
76127;SDS011;64873;50.102;14.434;2023-09-30T05:09:40;6.20;;;2.20;;
76127;SDS011;64873;50.102;14.434;2023-09-30T05:12:06;5.25;;;2.10;;
76127;SDS011;64873;50.102;14.434;2023-09-30T05:14:31;4.47;;;1.40;;
76127;SDS011;64873;50.102;14.434;2023-09-30T05:16:58;4.13;;;1.02;;
76127;SDS011;64873;50.102;14.434;2023-09-30T05:19:24;3.15;;;1.02;;
76127;SDS011;64873;50.102;14.434;2023-09-30T05:21:49;3.50;;;1.23;;
76127;SDS011;64873;50.102;14.434;2023-09-30T05:24:15;4.72;;;1.05;;
76127;SDS011;64873;50.102;14.434;2023-09-30T05:26:44;3.42;;;1.10;;
76127;SDS011;64873;50.102;14.434;2023-09-30T05:29:10;3.60;;;0.70;;
76127;SDS011;64873;50.102;14.434;2023-09-30T05:31:35;14.68;;;1.23;;
76127;SDS011;64873;50.102;14.434;2023-09-30T05:34:01;1.50;;;0.73;;
76127;SDS011;64873;50.102;14.434;2023-09-30T05:36:27;2.60;;;1.13;;
76127;SDS011;64873;50.102;14.434;2023-09-30T05:38:53;3.33;;;1.17;;
76127;SDS011;64873;50.102;14.434;2023-09-30T05:41:20;3.50;;;1.38;;
76127;SDS011;64873;50.102;14.434;2023-09-30T05:43:46;3.42;;;1.08;;
76127;SDS011;64873;50.102;14.434;2023-09-30T05:46:12;2.97;;;1.10;;
76127;SDS011;64873;50.102;14.434;2023-09-30T05:48:38;4.80;;;1.13;;
76127;SDS011;64873;50.102;14.434;2023-09-30T05:51:04;3.83;;;1.23;;
76127;SDS011;64873;50.102;14.434;2023-09-30T05:53:31;3.20;;;1.05;;
76127;SDS011;64873;50.102;14.434;2023-09-30T05:55:58;5.85;;;1.60;;
76127;SDS011;64873;50.102;14.434;2023-09-30T05:58:24;3.47;;;1.40;;
76127;SDS011;64873;50.102;14.434;2023-09-30T06:00:51;3.03;;;1.42;;
76127;SDS011;64873;50.102;14.434;2023-09-30T06:03:19;2.67;;;1.40;;
76127;SDS011;64873;50.102;14.434;2023-09-30T06:05:46;3.45;;;1.20;;
76127;SDS011;64873;50.102;14.434;2023-09-30T06:08:12;4.70;;;1.55;;
76127;SDS011;64873;50.102;14.434;2023-09-30T06:10:41;7.35;;;1.65;;
76127;SDS011;64873;50.102;14.434;2023-09-30T06:13:11;4.78;;;1.60;;
76127;SDS011;64873;50.102;14.434;2023-09-30T06:15:40;7.97;;;1.77;;
76127;SDS011;64873;50.102;14.434;2023-09-30T06:18:07;6.47;;;1.90;;
76127;SDS011;64873;50.102;14.434;2023-09-30T06:20:34;4.90;;;2.03;;
76127;SDS011;64873;50.102;14.434;2023-09-30T06:23:00;4.43;;;1.58;;
76127;SDS011;64873;50.102;14.434;2023-09-30T06:25:28;8.43;;;1.92;;
76127;SDS011;64873;50.102;14.434;2023-09-30T06:27:55;12.27;;;2.08;;
76127;SDS011;64873;50.102;14.434;2023-09-30T06:30:21;5.80;;;2.35;;
76127;SDS011;64873;50.102;14.434;2023-09-30T06:32:47;7.15;;;1.90;;
76127;SDS011;64873;50.102;14.434;2023-09-30T06:35:12;7.88;;;1.90;;
76127;SDS011;64873;50.102;14.434;2023-09-30T06:37:41;6.57;;;2.00;;
76127;SDS011;64873;50.102;14.434;2023-09-30T06:40:08;8.77;;;1.75;;
76127;SDS011;64873;50.102;14.434;2023-09-30T06:42:36;6.95;;;1.95;;
76127;SDS011;64873;50.102;14.434;2023-09-30T06:45:02;5.72;;;1.75;;
76127;SDS011;64873;50.102;14.434;2023-09-30T06:47:34;6.25;;;1.77;;
76127;SDS011;64873;50.102;14.434;2023-09-30T06:50:03;6.28;;;1.73;;
76127;SDS011;64873;50.102;14.434;2023-09-30T06:52:37;7.15;;;1.90;;
76127;SDS011;64873;50.102;14.434;2023-09-30T06:55:04;8.68;;;2.22;;
76127;SDS011;64873;50.102;14.434;2023-09-30T06:57:37;6.28;;;1.90;;
76127;SDS011;64873;50.102;14.434;2023-09-30T07:00:06;6.15;;;1.80;;
76127;SDS011;64873;50.102;14.434;2023-09-30T07:02:37;7.95;;;1.50;;
76127;SDS011;64873;50.102;14.434;2023-09-30T07:05:07;6.28;;;1.80;;
76127;SDS011;64873;50.102;14.434;2023-09-30T07:07:33;4.45;;;1.80;;
76127;SDS011;64873;50.102;14.434;2023-09-30T07:09:59;6.82;;;1.67;;
76127;SDS011;64873;50.102;14.434;2023-09-30T07:12:24;5.47;;;1.90;;
76127;SDS011;64873;50.102;14.434;2023-09-30T07:14:50;5.72;;;1.80;;
76127;SDS011;64873;50.102;14.434;2023-09-30T07:17:15;4.57;;;1.58;;
76127;SDS011;64873;50.102;14.434;2023-09-30T07:19:41;6.38;;;1.88;;
76127;SDS011;64873;50.102;14.434;2023-09-30T07:22:06;13.07;;;2.33;;
76127;SDS011;64873;50.102;14.434;2023-09-30T07:24:31;6.47;;;1.85;;
76127;SDS011;64873;50.102;14.434;2023-09-30T07:26:57;9.93;;;1.83;;
76127;SDS011;64873;50.102;14.434;2023-09-30T07:29:23;4.45;;;1.40;;
76127;SDS011;64873;50.102;14.434;2023-09-30T07:31:49;5.38;;;1.50;;
76127;SDS011;64873;50.102;14.434;2023-09-30T07:34:15;15.52;;;2.58;;
76127;SDS011;64873;50.102;14.434;2023-09-30T07:36:41;8.77;;;2.05;;
76127;SDS011;64873;50.102;14.434;2023-09-30T07:39:07;5.32;;;1.60;;
76127;SDS011;64873;50.102;14.434;2023-09-30T07:41:36;7.22;;;1.98;;
76127;SDS011;64873;50.102;14.434;2023-09-30T07:44:01;6.97;;;1.77;;
76127;SDS011;64873;50.102;14.434;2023-09-30T07:46:27;9.65;;;2.28;;
76127;SDS011;64873;50.102;14.434;2023-09-30T07:48:53;6.28;;;1.77;;
76127;SDS011;64873;50.102;14.434;2023-09-30T07:51:20;7.20;;;1.63;;
76127;SDS011;64873;50.102;14.434;2023-09-30T07:53:45;6.60;;;2.22;;
76127;SDS011;64873;50.102;14.434;2023-09-30T07:56:11;11.02;;;2.30;;
76127;SDS011;64873;50.102;14.434;2023-09-30T07:58:36;6.45;;;1.92;;
76127;SDS011;64873;50.102;14.434;2023-09-30T08:01:02;8.93;;;1.92;;
76127;SDS011;64873;50.102;14.434;2023-09-30T08:03:27;5.00;;;1.85;;
76127;SDS011;64873;50.102;14.434;2023-09-30T08:05:53;9.20;;;2.28;;
76127;SDS011;64873;50.102;14.434;2023-09-30T08:08:18;8.15;;;1.73;;
76127;SDS011;64873;50.102;14.434;2023-09-30T08:10:44;7.40;;;1.85;;
76127;SDS011;64873;50.102;14.434;2023-09-30T08:13:09;9.50;;;2.40;;
76127;SDS011;64873;50.102;14.434;2023-09-30T08:15:34;10.68;;;1.80;;
76127;SDS011;64873;50.102;14.434;2023-09-30T08:18:00;10.18;;;2.63;;
76127;SDS011;64873;50.102;14.434;2023-09-30T08:20:28;8.65;;;2.03;;
76127;SDS011;64873;50.102;14.434;2023-09-30T08:22:53;5.80;;;2.13;;
76127;SDS011;64873;50.102;14.434;2023-09-30T08:25:18;7.50;;;2.00;;
76127;SDS011;64873;50.102;14.434;2023-09-30T08:27:44;8.30;;;1.92;;
76127;SDS011;64873;50.102;14.434;2023-09-30T08:30:14;7.43;;;2.05;;
76127;SDS011;64873;50.102;14.434;2023-09-30T08:32:40;9.70;;;2.17;;
76127;SDS011;64873;50.102;14.434;2023-09-30T08:35:05;7.03;;;2.05;;
76127;SDS011;64873;50.102;14.434;2023-09-30T08:37:32;9.88;;;1.90;;
76127;SDS011;64873;50.102;14.434;2023-09-30T08:39:58;6.35;;;2.10;;
76127;SDS011;64873;50.102;14.434;2023-09-30T08:42:23;8.82;;;1.77;;
76127;SDS011;64873;50.102;14.434;2023-09-30T08:44:55;8.32;;;1.67;;
76127;SDS011;64873;50.102;14.434;2023-09-30T08:47:21;7.00;;;2.08;;
76127;SDS011;64873;50.102;14.434;2023-09-30T08:49:48;5.80;;;2.17;;
76127;SDS011;64873;50.102;14.434;2023-09-30T08:52:16;9.82;;;2.28;;
76127;SDS011;64873;50.102;14.434;2023-09-30T08:54:42;7.82;;;2.20;;
76127;SDS011;64873;50.102;14.434;2023-09-30T08:57:09;8.45;;;2.28;;
76127;SDS011;64873;50.102;14.434;2023-09-30T08:59:35;7.20;;;2.30;;
76127;SDS011;64873;50.102;14.434;2023-09-30T09:02:07;4.50;;;1.77;;
76127;SDS011;64873;50.102;14.434;2023-09-30T09:04:33;10.02;;;2.13;;
76127;SDS011;64873;50.102;14.434;2023-09-30T09:06:59;5.75;;;1.52;;
76127;SDS011;64873;50.102;14.434;2023-09-30T09:09:24;7.55;;;1.95;;
76127;SDS011;64873;50.102;14.434;2023-09-30T09:11:50;12.27;;;2.47;;
76127;SDS011;64873;50.102;14.434;2023-09-30T09:14:16;10.55;;;2.10;;
76127;SDS011;64873;50.102;14.434;2023-09-30T09:16:51;11.02;;;2.33;;
76127;SDS011;64873;50.102;14.434;2023-09-30T09:19:18;11.93;;;2.42;;
76127;SDS011;64873;50.102;14.434;2023-09-30T09:21:56;10.68;;;1.90;;
76127;SDS011;64873;50.102;14.434;2023-09-30T09:27:04;10.23;;;2.17;;
76127;SDS011;64873;50.102;14.434;2023-09-30T09:29:38;8.57;;;2.08;;
76127;SDS011;64873;50.102;14.434;2023-09-30T09:32:14;11.68;;;2.58;;
76127;SDS011;64873;50.102;14.434;2023-09-30T09:34:41;8.23;;;2.28;;
76127;SDS011;64873;50.102;14.434;2023-09-30T09:37:18;8.82;;;2.38;;
76127;SDS011;64873;50.102;14.434;2023-09-30T09:39:56;10.18;;;2.22;;
76127;SDS011;64873;50.102;14.434;2023-09-30T09:42:32;7.88;;;2.05;;
76127;SDS011;64873;50.102;14.434;2023-09-30T09:44:58;8.25;;;2.00;;
76127;SDS011;64873;50.102;14.434;2023-09-30T09:47:25;14.35;;;3.17;;
76127;SDS011;64873;50.102;14.434;2023-09-30T09:49:52;9.65;;;2.40;;
76127;SDS011;64873;50.102;14.434;2023-09-30T09:52:18;11.30;;;2.58;;
76127;SDS011;64873;50.102;14.434;2023-09-30T09:54:45;8.05;;;2.47;;
76127;SDS011;64873;50.102;14.434;2023-09-30T09:57:11;7.22;;;2.03;;
76127;SDS011;64873;50.102;14.434;2023-09-30T09:59:38;10.32;;;2.42;;
76127;SDS011;64873;50.102;14.434;2023-09-30T10:02:08;6.10;;;1.95;;
76127;SDS011;64873;50.102;14.434;2023-09-30T10:04:37;7.72;;;2.20;;
76127;SDS011;64873;50.102;14.434;2023-09-30T10:07:03;6.28;;;1.98;;
76127;SDS011;64873;50.102;14.434;2023-09-30T10:09:31;9.75;;;2.53;;
76127;SDS011;64873;50.102;14.434;2023-09-30T10:12:00;9.25;;;1.98;;
76127;SDS011;64873;50.102;14.434;2023-09-30T10:14:33;11.70;;;2.40;;
76127;SDS011;64873;50.102;14.434;2023-09-30T10:16:59;7.88;;;2.08;;
76127;SDS011;64873;50.102;14.434;2023-09-30T10:19:24;8.20;;;2.33;;
76127;SDS011;64873;50.102;14.434;2023-09-30T10:24:56;13.35;;;2.28;;
76127;SDS011;64873;50.102;14.434;2023-09-30T10:33:35;10.23;;;2.00;;
76127;SDS011;64873;50.102;14.434;2023-09-30T10:35:50;9.15;;;1.92;;
76127;SDS011;64873;50.102;14.434;2023-09-30T10:40:49;8.35;;;1.90;;
76127;SDS011;64873;50.102;14.434;2023-09-30T10:46:01;7.30;;;1.70;;
76127;SDS011;64873;50.102;14.434;2023-09-30T10:51:17;11.32;;;2.05;;
76127;SDS011;64873;50.102;14.434;2023-09-30T10:53:47;6.38;;;2.08;;
76127;SDS011;64873;50.102;14.434;2023-09-30T10:56:16;8.25;;;1.98;;
76127;SDS011;64873;50.102;14.434;2023-09-30T10:58:46;7.68;;;1.98;;
76127;SDS011;64873;50.102;14.434;2023-09-30T11:01:17;10.35;;;2.58;;
76127;SDS011;64873;50.102;14.434;2023-09-30T11:03:44;8.20;;;1.98;;
76127;SDS011;64873;50.102;14.434;2023-09-30T11:06:13;8.90;;;2.45;;
76127;SDS011;64873;50.102;14.434;2023-09-30T11:08:52;6.20;;;1.67;;
76127;SDS011;64873;50.102;14.434;2023-09-30T11:11:31;6.72;;;2.05;;
76127;SDS011;64873;50.102;14.434;2023-09-30T11:13:59;6.32;;;2.28;;
76127;SDS011;64873;50.102;14.434;2023-09-30T11:16:25;10.07;;;2.25;;
76127;SDS011;64873;50.102;14.434;2023-09-30T11:18:54;5.57;;;1.90;;
76127;SDS011;64873;50.102;14.434;2023-09-30T11:21:19;8.80;;;2.08;;
76127;SDS011;64873;50.102;14.434;2023-09-30T11:23:47;8.85;;;2.10;;
76127;SDS011;64873;50.102;14.434;2023-09-30T11:26:12;10.68;;;2.50;;
76127;SDS011;64873;50.102;14.434;2023-09-30T11:28:42;6.35;;;2.00;;
76127;SDS011;64873;50.102;14.434;2023-09-30T11:31:12;6.05;;;1.60;;
76127;SDS011;64873;50.102;14.434;2023-09-30T11:33:47;5.77;;;2.27;;
76127;SDS011;64873;50.102;14.434;2023-09-30T11:36:17;9.55;;;2.38;;
76127;SDS011;64873;50.102;14.434;2023-09-30T11:38:45;10.80;;;2.85;;
76127;SDS011;64873;50.102;14.434;2023-09-30T11:41:12;8.15;;;2.05;;
76127;SDS011;64873;50.102;14.434;2023-09-30T11:43:38;8.38;;;2.10;;
76127;SDS011;64873;50.102;14.434;2023-09-30T11:46:10;11.35;;;2.20;;
76127;SDS011;64873;50.102;14.434;2023-09-30T11:48:40;8.18;;;2.35;;
76127;SDS011;64873;50.102;14.434;2023-09-30T11:51:27;7.50;;;1.65;;
76127;SDS011;64873;50.102;14.434;2023-09-30T11:53:53;6.75;;;2.30;;
76127;SDS011;64873;50.102;14.434;2023-09-30T11:56:21;9.85;;;2.05;;
76127;SDS011;64873;50.102;14.434;2023-09-30T11:58:52;6.93;;;1.80;;
76127;SDS011;64873;50.102;14.434;2023-09-30T12:01:18;8.15;;;2.88;;
76127;SDS011;64873;50.102;14.434;2023-09-30T12:03:44;7.55;;;1.77;;
76127;SDS011;64873;50.102;14.434;2023-09-30T12:06:09;8.05;;;2.00;;
76127;SDS011;64873;50.102;14.434;2023-09-30T12:08:39;9.27;;;2.03;;
76127;SDS011;64873;50.102;14.434;2023-09-30T12:11:05;5.35;;;1.80;;
76127;SDS011;64873;50.102;14.434;2023-09-30T12:13:31;7.03;;;2.00;;
76127;SDS011;64873;50.102;14.434;2023-09-30T12:15:56;9.88;;;2.13;;
76127;SDS011;64873;50.102;14.434;2023-09-30T12:18:22;10.32;;;2.75;;
76127;SDS011;64873;50.102;14.434;2023-09-30T12:20:51;9.07;;;1.88;;
76127;SDS011;64873;50.102;14.434;2023-09-30T12:23:18;9.02;;;2.20;;
76127;SDS011;64873;50.102;14.434;2023-09-30T12:25:44;6.78;;;2.28;;
76127;SDS011;64873;50.102;14.434;2023-09-30T12:28:09;7.32;;;1.88;;
76127;SDS011;64873;50.102;14.434;2023-09-30T12:30:35;10.15;;;1.58;;
76127;SDS011;64873;50.102;14.434;2023-09-30T12:33:00;7.72;;;2.00;;
76127;SDS011;64873;50.102;14.434;2023-09-30T12:35:26;7.22;;;2.17;;
76127;SDS011;64873;50.102;14.434;2023-09-30T12:37:51;12.52;;;1.77;;
76127;SDS011;64873;50.102;14.434;2023-09-30T12:40:17;8.50;;;2.20;;
76127;SDS011;64873;50.102;14.434;2023-09-30T12:42:43;5.25;;;1.55;;
76127;SDS011;64873;50.102;14.434;2023-09-30T12:45:10;8.68;;;2.10;;
76127;SDS011;64873;50.102;14.434;2023-09-30T12:47:36;5.07;;;1.50;;
76127;SDS011;64873;50.102;14.434;2023-09-30T12:50:01;8.45;;;1.95;;
76127;SDS011;64873;50.102;14.434;2023-09-30T12:52:27;4.70;;;1.55;;
76127;SDS011;64873;50.102;14.434;2023-09-30T12:54:52;7.68;;;2.08;;
76127;SDS011;64873;50.102;14.434;2023-09-30T12:57:18;10.95;;;2.42;;
76127;SDS011;64873;50.102;14.434;2023-09-30T12:59:44;9.55;;;2.80;;
76127;SDS011;64873;50.102;14.434;2023-09-30T13:02:12;5.68;;;1.67;;
76127;SDS011;64873;50.102;14.434;2023-09-30T13:04:38;7.45;;;1.92;;
76127;SDS011;64873;50.102;14.434;2023-09-30T13:07:11;8.30;;;1.80;;
76127;SDS011;64873;50.102;14.434;2023-09-30T13:09:40;8.15;;;2.00;;
76127;SDS011;64873;50.102;14.434;2023-09-30T13:12:06;5.68;;;1.75;;
76127;SDS011;64873;50.102;14.434;2023-09-30T13:14:32;5.22;;;1.60;;
76127;SDS011;64873;50.102;14.434;2023-09-30T13:16:57;7.00;;;2.25;;
76127;SDS011;64873;50.102;14.434;2023-09-30T13:19:23;5.97;;;1.60;;
76127;SDS011;64873;50.102;14.434;2023-09-30T13:21:49;9.98;;;2.47;;
76127;SDS011;64873;50.102;14.434;2023-09-30T13:24:21;7.82;;;1.85;;
76127;SDS011;64873;50.102;14.434;2023-09-30T13:26:47;7.30;;;2.17;;
76127;SDS011;64873;50.102;14.434;2023-09-30T13:29:17;7.70;;;2.00;;
76127;SDS011;64873;50.102;14.434;2023-09-30T13:31:43;7.90;;;1.83;;
76127;SDS011;64873;50.102;14.434;2023-09-30T13:34:09;5.50;;;1.83;;
76127;SDS011;64873;50.102;14.434;2023-09-30T13:36:35;5.65;;;1.60;;
76127;SDS011;64873;50.102;14.434;2023-09-30T13:39:00;9.40;;;1.58;;
76127;SDS011;64873;50.102;14.434;2023-09-30T13:41:26;7.57;;;1.90;;
76127;SDS011;64873;50.102;14.434;2023-09-30T13:43:52;8.00;;;1.83;;
76127;SDS011;64873;50.102;14.434;2023-09-30T13:46:18;10.40;;;1.80;;
76127;SDS011;64873;50.102;14.434;2023-09-30T13:48:43;8.38;;;2.33;;
76127;SDS011;64873;50.102;14.434;2023-09-30T13:51:09;9.90;;;2.28;;
76127;SDS011;64873;50.102;14.434;2023-09-30T13:53:35;4.68;;;1.63;;
76127;SDS011;64873;50.102;14.434;2023-09-30T13:56:01;6.28;;;2.00;;
76127;SDS011;64873;50.102;14.434;2023-09-30T13:58:28;7.30;;;1.88;;
76127;SDS011;64873;50.102;14.434;2023-09-30T14:00:54;6.43;;;1.85;;
76127;SDS011;64873;50.102;14.434;2023-09-30T14:03:21;8.55;;;1.90;;
76127;SDS011;64873;50.102;14.434;2023-09-30T14:05:49;8.88;;;1.98;;
76127;SDS011;64873;50.102;14.434;2023-09-30T14:08:15;8.10;;;1.90;;
76127;SDS011;64873;50.102;14.434;2023-09-30T14:10:41;5.45;;;2.08;;
76127;SDS011;64873;50.102;14.434;2023-09-30T14:13:08;7.93;;;1.73;;
76127;SDS011;64873;50.102;14.434;2023-09-30T14:15:33;11.38;;;3.63;;
76127;SDS011;64873;50.102;14.434;2023-09-30T14:17:59;10.63;;;2.72;;
76127;SDS011;64873;50.102;14.434;2023-09-30T14:20:25;10.57;;;3.35;;
76127;SDS011;64873;50.102;14.434;2023-09-30T14:22:50;5.75;;;2.10;;
76127;SDS011;64873;50.102;14.434;2023-09-30T14:25:17;6.72;;;2.10;;
76127;SDS011;64873;50.102;14.434;2023-09-30T14:27:42;12.18;;;2.63;;
76127;SDS011;64873;50.102;14.434;2023-09-30T14:30:08;6.10;;;2.08;;
76127;SDS011;64873;50.102;14.434;2023-09-30T14:32:34;5.97;;;2.10;;
76127;SDS011;64873;50.102;14.434;2023-09-30T14:35:00;7.53;;;1.92;;
76127;SDS011;64873;50.102;14.434;2023-09-30T14:37:25;6.07;;;1.88;;
76127;SDS011;64873;50.102;14.434;2023-09-30T14:39:50;9.23;;;2.05;;
76127;SDS011;64873;50.102;14.434;2023-09-30T14:42:16;6.15;;;2.15;;
76127;SDS011;64873;50.102;14.434;2023-09-30T14:44:41;7.30;;;2.05;;